createdAt,value
2022-11-10T00:01:16.008Z,98674.28
2022-11-10T00:04:17.378Z,98675.16
2022-11-10T00:07:18.808Z,98679.50
2022-11-10T00:10:20.250Z,98682.13
2022-11-10T00:13:21.871Z,98683.84
2022-11-10T00:16:42.088Z,98690.81
2022-11-10T00:19:43.445Z,98686.47
2022-11-10T00:22:44.816Z,98689.94
2022-11-10T00:25:46.143Z,98689.94
2022-11-10T00:28:47.468Z,98690.81
2022-11-10T00:31:48.829Z,98703.84
2022-11-10T00:34:50.238Z,98695.16
2022-11-10T00:37:51.904Z,98696.03
2022-11-10T00:40:53.272Z,98696.91
2022-11-10T00:43:54.594Z,98723.84
2022-11-10T00:46:55.928Z,98719.50
2022-11-10T00:49:57.294Z,98722.09
2022-11-10T00:52:58.698Z,98725.56
2022-11-10T00:56:00.030Z,98730.78
2022-11-10T00:59:01.355Z,98734.25
2022-11-10T01:02:02.707Z,98733.38
2022-11-10T01:05:04.115Z,98740.34
2022-11-10T01:08:05.509Z,98749.03
2022-11-10T01:11:07.712Z,98747.31
2022-11-10T01:14:09.082Z,98749.91
2022-11-10T01:17:10.395Z,98754.25
2022-11-10T01:20:11.747Z,98760.34
2022-11-10T01:23:13.069Z,98757.72
2022-11-10T01:26:14.405Z,98761.19
2022-11-10T01:29:15.788Z,98760.34
2022-11-10T01:32:17.162Z,98769.91
2022-11-10T01:35:18.524Z,98767.28
2022-11-10T01:38:19.852Z,98768.13
2022-11-10T01:41:21.182Z,98774.22
2022-11-10T01:44:23.339Z,98784.63
2022-11-10T01:47:24.655Z,98784.63
2022-11-10T01:50:26.450Z,98780.28
2022-11-10T01:53:27.822Z,98788.97
2022-11-10T01:56:29.981Z,98789.84
2022-11-10T01:59:32.473Z,98787.25
2022-11-10T02:02:42.346Z,98785.50
2022-11-10T02:05:43.662Z,98789.84
2022-11-10T02:08:44.982Z,98789.81
2022-11-10T02:11:46.369Z,98792.44
2022-11-10T02:14:47.787Z,98795.03
2022-11-10T02:17:49.175Z,98800.25
2022-11-10T02:20:50.633Z,98806.31
2022-11-10T02:23:52.632Z,98803.72
2022-11-10T02:26:54.374Z,98808.09
2022-11-10T02:29:55.764Z,98807.22
2022-11-10T02:32:57.234Z,98815.06
2022-11-10T02:35:58.581Z,98814.19
2022-11-10T02:38:59.906Z,98821.97
2022-11-10T02:42:01.261Z,98827.19
2022-11-10T02:45:02.663Z,98828.06
2022-11-10T02:48:04.064Z,98829.75
2022-11-10T02:51:05.422Z,98826.31
2022-11-10T02:54:06.764Z,98826.28
2022-11-10T02:57:08.544Z,98822.78
2022-11-10T03:00:10.147Z,98821.06
2022-11-10T03:03:11.487Z,98827.13
2022-11-10T03:06:12.798Z,98831.50
2022-11-10T03:09:14.124Z,98829.72
2022-11-10T03:12:15.460Z,98828.84
2022-11-10T03:15:16.799Z,98832.31
2022-11-10T03:18:18.133Z,98842.72
2022-11-10T03:21:19.600Z,98851.31
2022-11-10T03:24:21.051Z,98854.78
2022-11-10T03:27:22.411Z,98860.84
2022-11-10T03:30:23.811Z,98869.53
2022-11-10T03:33:25.407Z,98872.16
2022-11-10T03:36:27.011Z,98879.13
2022-11-10T03:39:28.409Z,98881.72
2022-11-10T03:42:29.799Z,98886.09
2022-11-10T03:45:31.436Z,98892.16
2022-11-10T03:48:32.767Z,98900.84
2022-11-10T03:51:34.154Z,98895.59
2022-11-10T03:54:35.540Z,98901.69
2022-11-10T03:57:36.850Z,98909.47
2022-11-10T04:00:38.411Z,98912.09
2022-11-10T04:03:39.803Z,98914.72
2022-11-10T04:07:00.098Z,98906.00
2022-11-10T04:10:01.584Z,98914.72
2022-11-10T04:13:21.876Z,98917.28
2022-11-10T04:16:23.461Z,98915.53
2022-11-10T04:19:24.955Z,98925.06
2022-11-10T04:22:45.081Z,98915.53
2022-11-10T04:26:06.398Z,98920.75
2022-11-10T04:29:10.975Z,98932.03
2022-11-10T04:32:12.296Z,98944.16
2022-11-10T04:35:13.625Z,98941.50
2022-11-10T04:38:14.971Z,98953.56
2022-11-10T04:41:16.357Z,98952.63
2022-11-10T04:44:17.798Z,98959.50
2022-11-10T04:47:19.134Z,98969.88
2022-11-10T04:50:20.510Z,98962.84
2022-11-10T04:53:22.128Z,98971.47
2022-11-10T04:56:23.883Z,98978.38
2022-11-10T04:59:25.228Z,98985.31
2022-11-10T05:02:26.594Z,98975.75
2022-11-10T05:05:27.910Z,98987.97
2022-11-10T05:08:29.274Z,98986.31
2022-11-10T05:11:30.623Z,98994.13
2022-11-10T05:14:32.072Z,98999.31
2022-11-10T05:17:33.406Z,98997.50
2022-11-10T05:20:34.739Z,98999.28
2022-11-10T05:23:39.269Z,98999.25
2022-11-10T05:26:40.675Z,99005.34
2022-11-10T05:29:42.012Z,99007.97
2022-11-10T05:32:43.337Z,99004.44
2022-11-10T05:35:44.669Z,99012.25
2022-11-10T05:38:45.981Z,99013.91
2022-11-10T05:41:47.479Z,99018.13
2022-11-10T05:44:48.822Z,99030.38
2022-11-10T05:47:50.133Z,99029.56
2022-11-10T05:50:51.508Z,99026.84
2022-11-10T05:53:52.845Z,99038.03
2022-11-10T05:56:54.201Z,99032.81
2022-11-10T05:59:55.581Z,99038.84
2022-11-10T06:03:03.082Z,99046.59
2022-11-10T06:06:04.755Z,99054.28
2022-11-10T06:09:06.134Z,99060.28
2022-11-10T06:12:07.632Z,99068.91
2022-11-10T06:15:10.149Z,99070.53
2022-11-10T06:18:11.623Z,99083.59
2022-11-10T06:21:13.010Z,99085.34
2022-11-10T06:24:14.409Z,99099.25
2022-11-10T06:27:15.720Z,99100.13
2022-11-10T06:30:17.158Z,99104.47
2022-11-10T06:33:18.566Z,99108.00
2022-11-10T06:36:19.978Z,99114.13
2022-11-10T06:39:21.394Z,99118.41
2022-11-10T06:42:22.737Z,99121.81
2022-11-10T06:45:24.959Z,99129.44
2022-11-10T06:48:26.384Z,99144.97
2022-11-10T06:51:27.714Z,99157.03
2022-11-10T06:54:29.102Z,99169.16
2022-11-10T06:57:30.432Z,99166.63
2022-11-10T07:00:31.845Z,99178.03
2022-11-10T07:03:33.301Z,99184.91
2022-11-10T07:06:34.682Z,99193.66
2022-11-10T07:09:36.043Z,99203.13
2022-11-10T07:12:37.362Z,99201.59
2022-11-10T07:15:38.736Z,99206.00
2022-11-10T07:18:40.091Z,99203.41
2022-11-10T07:21:41.780Z,99209.31
2022-11-10T07:24:43.334Z,99204.97
2022-11-10T07:27:44.648Z,99217.03
2022-11-10T07:30:45.967Z,99226.50
2022-11-10T07:33:53.299Z,99218.00
2022-11-10T07:36:55.776Z,99231.06
2022-11-10T07:39:57.101Z,99235.31
2022-11-10T07:42:58.490Z,99239.25
2022-11-10T07:46:00.792Z,99249.06
2022-11-10T07:49:02.172Z,99260.47
2022-11-10T07:52:03.483Z,99270.03
2022-11-10T07:55:05.509Z,99276.94
2022-11-10T07:58:06.891Z,99269.94
2022-11-10T08:01:08.248Z,99277.81
2022-11-10T08:04:09.597Z,99271.75
2022-11-10T08:07:10.964Z,99273.41
2022-11-10T08:10:12.361Z,99279.44
2022-11-10T08:13:13.973Z,99280.44
2022-11-10T08:16:15.315Z,99289.53
2022-11-10T08:19:16.657Z,99295.72
2022-11-10T08:22:18.007Z,99295.75
2022-11-10T08:25:19.388Z,99292.28
2022-11-10T08:28:20.859Z,99299.28
2022-11-10T08:31:22.270Z,99303.75
2022-11-10T08:34:23.677Z,99307.44
2022-11-10T08:37:26.218Z,99294.72
2022-11-10T08:40:27.840Z,99297.44
2022-11-10T08:43:29.312Z,99307.19
2022-11-10T08:46:30.625Z,99299.47
2022-11-10T08:49:32.040Z,99310.22
2022-11-10T08:52:33.391Z,99305.34
2022-11-10T08:55:34.778Z,99312.31
2022-11-10T08:58:46.265Z,99310.38
2022-11-10T09:01:51.722Z,99310.16
2022-11-10T09:04:53.545Z,99315.81
2022-11-10T09:07:54.984Z,99313.44
2022-11-10T09:10:56.367Z,99310.47
2022-11-10T09:13:57.732Z,99315.69
2022-11-10T09:16:59.158Z,99315.72
2022-11-10T09:20:00.598Z,99326.47
2022-11-10T09:23:05.997Z,99337.94
2022-11-10T09:26:07.596Z,99345.75
2022-11-10T09:29:09.969Z,99361.06
2022-11-10T09:32:11.312Z,99426.38
2022-11-10T09:35:13.585Z,99503.38
2022-11-10T09:38:15.072Z,99556.94
2022-11-10T09:41:16.418Z,99588.47
2022-11-10T09:44:24.975Z,99618.22
2022-11-10T09:47:56.204Z,99639.13
2022-11-10T09:50:56.716Z,99652.75
2022-11-10T09:53:58.956Z,99661.84
2022-11-10T09:57:00.880Z,99657.06
2022-11-10T10:00:02.314Z,99664.94
2022-11-10T10:03:04.359Z,99651.28
2022-11-10T10:06:09.399Z,99654.81
2022-11-10T10:09:16.889Z,99650.78
2022-11-10T10:12:33.533Z,99654.78
2022-11-10T10:15:37.869Z,99662.44
2022-11-10T10:18:46.957Z,99672.53
2022-11-10T10:21:48.270Z,99676.00
2022-11-10T10:24:49.864Z,99668.09
2022-11-10T10:27:54.304Z,99662.78
2022-11-10T10:30:56.126Z,99659.91
2022-11-10T10:33:57.491Z,99660.19
2022-11-10T10:36:58.848Z,99661.53
2022-11-10T10:40:00.193Z,99662.28
2022-11-10T10:43:01.632Z,99660.94
2022-11-10T10:46:03.888Z,99657.47
2022-11-10T10:52:32.909Z,99647.72
2022-11-10T10:55:34.723Z,99647.03
2022-11-10T10:58:36.808Z,99653.59
2022-11-10T11:01:38.333Z,99652.53
2022-11-10T11:04:39.933Z,99649.00
2022-11-10T11:07:41.473Z,99649.59
2022-11-10T11:10:44.246Z,99646.47
2022-11-10T11:13:45.588Z,99650.59
2022-11-10T11:16:47.059Z,99652.94
2022-11-10T11:19:48.628Z,99658.38
2022-11-10T11:22:56.361Z,99653.47
2022-11-10T11:25:59.383Z,99647.53
2022-11-10T11:29:19.398Z,99660.16
2022-11-10T11:32:40.246Z,99662.75
2022-11-10T11:35:46.514Z,99654.94
2022-11-10T11:38:52.495Z,99645.34
2022-11-10T11:42:12.710Z,99640.13
2022-11-10T11:45:14.029Z,99635.69
2022-11-10T11:48:33.706Z,99647.97
2022-11-10T11:51:35.007Z,99652.38
2022-11-10T11:54:48.092Z,99641.84
2022-11-10T11:57:53.758Z,99639.22
2022-11-10T12:01:21.507Z,99643.59
2022-11-10T12:04:31.225Z,99638.38
2022-11-10T12:07:32.566Z,99640.09
2022-11-10T12:10:40.608Z,99644.47
2022-11-10T12:13:48.049Z,99647.97
2022-11-10T12:17:10.290Z,99634.84
2022-11-10T12:20:34.797Z,99644.47
2022-11-10T12:23:39.130Z,99638.34
2022-11-10T12:26:57.095Z,99631.38
2022-11-10T12:29:59.834Z,99626.97
2022-11-10T12:33:20.469Z,99629.59
2022-11-10T12:36:22.122Z,99623.47
2022-11-10T12:39:24.496Z,99626.97
2022-11-10T12:42:26.209Z,99625.22
2022-11-10T12:45:37.836Z,99616.47
2022-11-10T12:48:56.085Z,99614.72
2022-11-10T12:52:02.703Z,99615.59
2022-11-10T12:55:04.193Z,99617.34
2022-11-10T12:58:05.525Z,99616.47
2022-11-10T13:01:11.778Z,99620.84
2022-11-10T13:04:16.421Z,99620.84
2022-11-10T13:07:17.863Z,99626.13
2022-11-10T13:10:19.216Z,99628.72
2022-11-10T13:13:20.615Z,99634.00
2022-11-10T13:16:40.515Z,99634.84
2022-11-10T13:19:48.358Z,99630.50
2022-11-10T13:22:49.688Z,99629.59
2022-11-10T13:25:55.052Z,99628.69
2022-11-10T13:28:57.348Z,99618.16
2022-11-10T13:31:59.407Z,99624.25
2022-11-10T13:35:19.514Z,99618.19
2022-11-10T13:38:33.011Z,99615.56
2022-11-10T13:41:34.788Z,99626.88
2022-11-10T13:44:39.828Z,99626.88
2022-11-10T13:47:50.281Z,99627.72
2022-11-10T13:51:10.509Z,99625.97
2022-11-10T13:54:26.090Z,99628.53
2022-11-10T13:57:40.579Z,99627.50
2022-11-10T14:00:41.938Z,99626.59
2022-11-10T14:03:46.347Z,99628.28
2022-11-10T14:06:51.143Z,99635.28
2022-11-10T14:09:52.508Z,99630.00
2022-11-10T14:12:55.721Z,99629.09
2022-11-10T14:15:57.060Z,99627.25
2022-11-10T14:19:07.278Z,99635.00
2022-11-10T14:22:27.480Z,99636.69
2022-11-10T14:25:36.250Z,99635.72
2022-11-10T14:28:38.120Z,99631.03
2022-11-10T14:31:39.474Z,99616.09
2022-11-10T14:34:47.832Z,99610.84
2022-11-10T14:37:49.465Z,99609.78
2022-11-10T14:40:51.007Z,99601.78
2022-11-10T14:44:18.685Z,99602.72
2022-11-10T14:47:24.638Z,99597.44
2022-11-10T14:50:26.496Z,99590.38
2022-11-10T14:53:32.355Z,99593.50
2022-11-10T14:56:35.244Z,99584.53
2022-11-10T14:59:36.720Z,99582.72
2022-11-10T15:02:38.117Z,99577.50
2022-11-10T15:05:39.504Z,99560.81
2022-11-10T15:08:41.107Z,99566.72
2022-11-10T15:11:49.446Z,99557.03
2022-11-10T15:14:56.817Z,99555.25
2022-11-10T15:17:58.178Z,99550.81
2022-11-10T15:21:03.385Z,99556.91
2022-11-10T15:24:04.866Z,99556.84
2022-11-10T15:27:06.206Z,99557.66
2022-11-10T15:30:20.072Z,99558.44
2022-11-10T15:33:23.480Z,99556.59
2022-11-10T15:36:34.001Z,99560.00
2022-11-10T15:39:35.388Z,99551.09
2022-11-10T15:42:36.772Z,99544.81
2022-11-10T15:45:38.244Z,99555.22
2022-11-10T15:48:43.298Z,99542.84
2022-11-10T15:51:44.622Z,99550.56
2022-11-10T15:54:46.008Z,99543.34
2022-11-10T15:57:47.375Z,99545.09
2022-11-10T16:00:48.731Z,99545.84
2022-11-10T16:03:50.042Z,99538.78
2022-11-10T16:06:51.448Z,99541.28
2022-11-10T16:09:52.762Z,99537.75
2022-11-10T16:12:54.093Z,99547.06
2022-11-10T16:15:55.457Z,99546.16
2022-11-10T16:18:56.792Z,99556.34
2022-11-10T16:21:58.161Z,99564.91
2022-11-10T16:24:59.624Z,99554.34
2022-11-10T16:28:04.410Z,99562.00
2022-11-10T16:31:05.743Z,99562.75
2022-11-10T16:34:10.153Z,99572.91
2022-11-10T16:37:12.113Z,99579.81
2022-11-10T16:40:17.231Z,99576.16
2022-11-10T16:43:18.587Z,99582.94
2022-11-10T16:46:21.105Z,99584.66
2022-11-10T16:49:25.528Z,99579.34
2022-11-10T16:52:27.072Z,99588.69
2022-11-10T16:55:28.396Z,99589.44
2022-11-10T16:58:29.876Z,99585.72
2022-11-10T17:01:31.462Z,99579.50
2022-11-10T17:04:32.828Z,99577.63
2022-11-10T17:07:34.310Z,99581.72
2022-11-10T17:10:35.653Z,99586.81
2022-11-10T17:13:37.033Z,99583.25
2022-11-10T17:16:38.912Z,99588.34
2022-11-10T17:19:40.246Z,99581.22
2022-11-10T17:22:41.669Z,99582.72
2022-11-10T17:25:43.174Z,99600.88
2022-11-10T17:28:44.556Z,99605.00
2022-11-10T17:31:45.920Z,99603.97
2022-11-10T17:34:47.403Z,99602.25
2022-11-10T17:37:49.316Z,99608.16
2022-11-10T17:40:50.930Z,99610.75
2022-11-10T17:43:52.310Z,99608.03
2022-11-10T17:46:53.717Z,99606.38
2022-11-10T17:49:55.072Z,99608.03
2022-11-10T17:52:56.431Z,99613.94
2022-11-10T17:55:57.777Z,99596.34
2022-11-10T17:58:59.110Z,99609.09
2022-11-10T18:02:01.045Z,99609.97
2022-11-10T18:05:02.529Z,99609.72
2022-11-10T18:08:07.426Z,99620.81
2022-11-10T18:11:09.276Z,99612.09
2022-11-10T18:14:10.924Z,99624.09
2022-11-10T18:17:12.401Z,99632.63
2022-11-10T18:20:13.789Z,99629.00
2022-11-10T18:23:15.129Z,99636.78
2022-11-10T18:26:16.543Z,99634.19
2022-11-10T18:29:17.917Z,99634.94
2022-11-10T18:32:19.254Z,99631.31
2022-11-10T18:35:20.613Z,99627.81
2022-11-10T18:38:22.006Z,99630.56
2022-11-10T18:41:42.255Z,99634.84
2022-11-10T18:44:43.690Z,99642.56
2022-11-10T18:47:45.059Z,99630.25
2022-11-10T18:50:46.459Z,99633.53
2022-11-10T18:53:47.809Z,99635.16
2022-11-10T18:56:49.294Z,99628.38
2022-11-10T18:59:50.645Z,99626.66
2022-11-10T19:02:52.129Z,99627.16
2022-11-10T19:05:58.643Z,99624.34
2022-11-10T19:09:00.166Z,99629.56
2022-11-10T19:12:01.546Z,99631.41
2022-11-10T19:15:02.874Z,99637.34
2022-11-10T19:18:04.215Z,99642.44
2022-11-10T19:21:05.624Z,99649.41
2022-11-10T19:24:07.085Z,99651.06
2022-11-10T19:27:08.862Z,99647.53
2022-11-10T19:30:10.432Z,99638.97
2022-11-10T19:33:11.760Z,99641.63
2022-11-10T19:36:13.861Z,99642.25
2022-11-10T19:39:15.241Z,99644.56
2022-11-10T19:42:16.567Z,99644.19
2022-11-10T19:45:17.955Z,99647.44
2022-11-10T19:48:19.303Z,99653.97
2022-11-10T19:51:22.134Z,99649.63
2022-11-10T19:54:23.475Z,99635.81
2022-11-10T19:57:25.141Z,99633.34
2022-11-10T20:00:26.515Z,99634.97
2022-11-10T20:03:30.952Z,99631.34
2022-11-10T20:06:32.319Z,99643.97
2022-11-10T20:09:33.816Z,99645.63
2022-11-10T20:12:35.248Z,99649.78
2022-11-10T20:15:40.210Z,99648.19
2022-11-10T20:18:41.595Z,99655.22
2022-11-10T20:21:42.991Z,99664.88
2022-11-10T20:24:49.933Z,99659.47
2022-11-10T20:27:52.726Z,99659.19
2022-11-10T20:30:54.918Z,99664.06
2022-11-10T20:33:56.609Z,99661.31
2022-11-10T20:36:57.940Z,99658.69
2022-11-10T20:39:59.418Z,99656.84
2022-11-10T20:43:00.824Z,99657.69
2022-11-10T20:46:02.432Z,99670.31
2022-11-10T20:49:03.847Z,99680.44
2022-11-10T20:52:05.250Z,99689.16
2022-11-10T20:55:06.845Z,99685.06
2022-11-10T20:58:08.328Z,99684.13
2022-11-10T21:01:14.229Z,99686.25
2022-11-10T21:04:15.646Z,99690.34
2022-11-10T21:07:17.215Z,99687.66
2022-11-10T21:10:18.572Z,99687.50
2022-11-10T21:13:20.375Z,99698.78
2022-11-10T21:16:21.953Z,99685.78
2022-11-10T21:19:23.336Z,99699.81
2022-11-10T21:22:24.682Z,99702.31
2022-11-10T21:25:26.013Z,99706.38
2022-11-10T21:28:27.386Z,99700.91
2022-11-10T21:31:30.041Z,99712.03
2022-11-10T21:34:32.932Z,99705.16
2022-11-10T21:37:34.338Z,99709.38
2022-11-10T21:40:35.669Z,99704.81
2022-11-10T21:43:38.687Z,99686.63
2022-11-10T21:46:40.011Z,99684.03
2022-11-10T21:49:41.379Z,99675.34
2022-11-10T21:52:42.716Z,99676.94
2022-11-10T21:55:44.087Z,99670.72
2022-11-10T21:58:45.442Z,99667.13
2022-11-10T22:01:46.915Z,99662.06
2022-11-10T22:04:48.371Z,99654.38
2022-11-10T22:07:49.719Z,99655.38
2022-11-10T22:11:09.838Z,99658.53
2022-11-10T22:14:20.127Z,99651.47
2022-11-10T22:17:40.310Z,99652.25
2022-11-10T22:20:41.638Z,99648.81
2022-11-10T22:24:12.553Z,99653.31
2022-11-10T22:27:13.946Z,99643.69
2022-11-10T22:30:15.308Z,99642.94
2022-11-10T22:33:42.895Z,99651.47
2022-11-10T22:36:44.277Z,99644.38
2022-11-10T22:40:04.265Z,99648.69
2022-11-10T22:43:24.393Z,99647.84
2022-11-10T22:46:25.998Z,99648.50
2022-11-10T22:49:27.321Z,99649.13
2022-11-10T22:52:28.717Z,99651.66
2022-11-10T22:55:30.050Z,99647.31
2022-11-10T22:58:31.501Z,99643.78
2022-11-10T23:01:32.977Z,99643.97
2022-11-10T23:04:34.351Z,99648.91
2022-11-10T23:07:35.723Z,99649.66
2022-11-10T23:10:37.065Z,99658.00
2022-11-10T23:13:38.521Z,99661.31
2022-11-10T23:16:39.855Z,99661.47
2022-11-10T23:19:41.193Z,99652.84
2022-11-10T23:22:42.547Z,99658.63
2022-11-10T23:25:43.911Z,99659.53
2022-11-10T23:28:45.338Z,99654.56
2022-11-10T23:31:46.663Z,99647.53
2022-11-10T23:34:48.058Z,99657.75
2022-11-10T23:37:49.435Z,99650.84
2022-11-10T23:40:57.388Z,99649.78
2022-11-10T23:43:58.766Z,99651.16
2022-11-10T23:47:00.172Z,99653.69
2022-11-10T23:50:01.512Z,99643.28
2022-11-10T23:53:02.870Z,99646.66
2022-11-10T23:56:05.641Z,99645.69
2022-11-10T23:59:06.967Z,99652.44
